sensor_id;sensor_type;location;lat;lon;timestamp;pressure;altitude;pressure_sealevel;temperature;humidity
49473;BME280;67434;50.956;6.918;2023-02-01T00:01:18;101584.91;;;6.55;80.12
49473;BME280;67434;50.956;6.918;2023-02-01T00:04:04;101574.59;;;6.46;80.41
49473;BME280;67434;50.956;6.918;2023-02-01T00:06:49;101568.63;;;6.44;80.54
49473;BME280;67434;50.956;6.918;2023-02-01T00:09:35;101564.50;;;6.41;80.74
49473;BME280;67434;50.956;6.918;2023-02-01T00:12:20;101580.00;;;6.39;80.81
49473;BME280;67434;50.956;6.918;2023-02-01T00:15:06;101583.50;;;6.33;81.06
49473;BME280;67434;50.956;6.918;2023-02-01T00:17:53;101585.56;;;6.24;81.36
49473;BME280;67434;50.956;6.918;2023-02-01T00:20:45;101591.13;;;6.16;81.87
49473;BME280;67434;50.956;6.918;2023-02-01T00:23:33;101591.97;;;6.23;81.64
49473;BME280;67434;50.956;6.918;2023-02-01T00:26:24;101587.22;;;6.19;82.03
49473;BME280;67434;50.956;6.918;2023-02-01T00:29:14;101592.16;;;6.28;81.13
49473;BME280;67434;50.956;6.918;2023-02-01T00:32:00;101579.16;;;6.25;80.87
49473;BME280;67434;50.956;6.918;2023-02-01T00:34:45;101582.06;;;6.17;80.75
49473;BME280;67434;50.956;6.918;2023-02-01T00:37:31;101581.03;;;6.12;80.23
49473;BME280;67434;50.956;6.918;2023-02-01T00:40:17;101571.31;;;6.11;79.92
49473;BME280;67434;50.956;6.918;2023-02-01T00:43:02;101570.50;;;6.10;78.90
49473;BME280;67434;50.956;6.918;2023-02-01T00:45:48;101570.91;;;6.07;79.04
49473;BME280;67434;50.956;6.918;2023-02-01T00:48:33;101569.88;;;6.08;78.23
49473;BME280;67434;50.956;6.918;2023-02-01T00:51:22;101577.50;;;6.11;78.26
49473;BME280;67434;50.956;6.918;2023-02-01T00:54:08;101571.13;;;6.06;78.38
49473;BME280;67434;50.956;6.918;2023-02-01T00:56:53;101572.56;;;6.08;77.72
49473;BME280;67434;50.956;6.918;2023-02-01T00:59:39;101570.06;;;6.13;77.46
49473;BME280;67434;50.956;6.918;2023-02-01T01:02:25;101566.97;;;6.10;77.07
49473;BME280;67434;50.956;6.918;2023-02-01T01:05:11;101554.19;;;6.12;76.26
49473;BME280;67434;50.956;6.918;2023-02-01T01:07:56;101548.00;;;6.05;76.32
49473;BME280;67434;50.956;6.918;2023-02-01T01:10:42;101533.75;;;6.04;76.15
49473;BME280;67434;50.956;6.918;2023-02-01T01:13:28;101533.75;;;6.11;74.83
49473;BME280;67434;50.956;6.918;2023-02-01T01:16:13;101536.84;;;6.08;73.69
49473;BME280;67434;50.956;6.918;2023-02-01T01:19:00;101538.91;;;6.12;73.71
49473;BME280;67434;50.956;6.918;2023-02-01T01:21:45;101548.41;;;6.08;73.49
49473;BME280;67434;50.956;6.918;2023-02-01T01:24:31;101558.31;;;6.08;73.69
49473;BME280;67434;50.956;6.918;2023-02-01T01:27:17;101559.13;;;6.08;73.29
49473;BME280;67434;50.956;6.918;2023-02-01T01:30:08;101563.28;;;6.04;73.51
49473;BME280;67434;50.956;6.918;2023-02-01T01:32:54;101562.66;;;6.02;72.50
49473;BME280;67434;50.956;6.918;2023-02-01T01:35:40;101570.09;;;6.00;71.93
49473;BME280;67434;50.956;6.918;2023-02-01T01:38:25;101575.19;;;5.88;72.51
49473;BME280;67434;50.956;6.918;2023-02-01T01:41:16;101573.13;;;5.77;72.50
49473;BME280;67434;50.956;6.918;2023-02-01T01:44:04;101574.97;;;5.77;72.82
49473;BME280;67434;50.956;6.918;2023-02-01T01:46:50;101573.31;;;5.76;73.01
49473;BME280;67434;50.956;6.918;2023-02-01T01:49:36;101566.94;;;5.70;73.02
49473;BME280;67434;50.956;6.918;2023-02-01T01:52:23;101564.44;;;5.69;72.71
49473;BME280;67434;50.956;6.918;2023-02-01T01:55:09;101566.09;;;5.63;72.91
49473;BME280;67434;50.956;6.918;2023-02-01T01:58:03;101563.84;;;5.67;73.11
49473;BME280;67434;50.956;6.918;2023-02-01T02:00:51;101555.56;;;5.61;73.26
49473;BME280;67434;50.956;6.918;2023-02-01T02:03:40;101559.50;;;5.65;73.19
49473;BME280;67434;50.956;6.918;2023-02-01T02:06:33;101556.63;;;5.74;72.88
49473;BME280;67434;50.956;6.918;2023-02-01T02:09:21;101550.22;;;5.75;72.34
49473;BME280;67434;50.956;6.918;2023-02-01T02:12:06;101544.03;;;5.81;72.45
49473;BME280;67434;50.956;6.918;2023-02-01T02:14:52;101551.03;;;5.82;72.23
49473;BME280;67434;50.956;6.918;2023-02-01T02:17:53;101535.97;;;5.74;72.75
49473;BME280;67434;50.956;6.918;2023-02-01T02:20:51;101524.00;;;5.77;72.86
49473;BME280;67434;50.956;6.918;2023-02-01T02:26:59;101529.56;;;5.82;72.61
49473;BME280;67434;50.956;6.918;2023-02-01T02:39:16;101534.75;;;5.83;73.95
49473;BME280;67434;50.956;6.918;2023-02-01T02:42:18;101524.22;;;5.88;73.64
49473;BME280;67434;50.956;6.918;2023-02-01T02:45:41;101526.28;;;5.86;73.82
49473;BME280;67434;50.956;6.918;2023-02-01T02:48:55;101532.25;;;5.88;73.12
49473;BME280;67434;50.956;6.918;2023-02-01T02:51:49;101529.41;;;5.90;72.91
49473;BME280;67434;50.956;6.918;2023-02-01T02:54:56;101527.72;;;5.89;73.54
49473;BME280;67434;50.956;6.918;2023-02-01T02:57:43;101522.19;;;5.90;73.66
49473;BME280;67434;50.956;6.918;2023-02-01T03:00:49;101507.72;;;5.91;73.64
49473;BME280;67434;50.956;6.918;2023-02-01T03:03:54;101501.91;;;5.88;73.28
49473;BME280;67434;50.956;6.918;2023-02-01T03:06:54;101506.47;;;5.94;73.56
49473;BME280;67434;50.956;6.918;2023-02-01T03:09:40;101504.22;;;5.91;73.33
49473;BME280;67434;50.956;6.918;2023-02-01T03:12:28;101501.75;;;5.89;73.59
49473;BME280;67434;50.956;6.918;2023-02-01T03:15:40;101499.69;;;5.91;73.85
49473;BME280;67434;50.956;6.918;2023-02-01T03:18:59;101500.13;;;5.95;73.72
49473;BME280;67434;50.956;6.918;2023-02-01T03:21:51;101498.03;;;5.97;73.75
49473;BME280;67434;50.956;6.918;2023-02-01T03:24:47;101499.69;;;5.98;73.71
49473;BME280;67434;50.956;6.918;2023-02-01T03:27:47;101489.16;;;5.97;74.03
49473;BME280;67434;50.956;6.918;2023-02-01T03:30:43;101499.69;;;5.98;74.03
49473;BME280;67434;50.956;6.918;2023-02-01T03:33:30;101498.66;;;5.99;74.17
49473;BME280;67434;50.956;6.918;2023-02-01T03:36:32;101491.66;;;5.98;74.42
49473;BME280;67434;50.956;6.918;2023-02-01T03:42:24;101505.06;;;5.98;74.17
49473;BME280;67434;50.956;6.918;2023-02-01T03:45:18;101499.47;;;5.93;74.34
49473;BME280;67434;50.956;6.918;2023-02-01T03:48:07;101498.84;;;5.91;74.39
49473;BME280;67434;50.956;6.918;2023-02-01T03:50:56;101490.16;;;5.82;75.04
49473;BME280;67434;50.956;6.918;2023-02-01T03:53:44;101478.00;;;5.73;75.01
49473;BME280;67434;50.956;6.918;2023-02-01T03:56:36;101476.53;;;5.77;74.46
49473;BME280;67434;50.956;6.918;2023-02-01T03:59:22;101476.13;;;5.80;74.27
49473;BME280;67434;50.956;6.918;2023-02-01T04:02:09;101479.84;;;5.79;74.09
49473;BME280;67434;50.956;6.918;2023-02-01T04:04:55;101477.38;;;5.91;73.00
49473;BME280;67434;50.956;6.918;2023-02-01T04:07:41;101484.41;;;5.92;73.54
49473;BME280;67434;50.956;6.918;2023-02-01T04:10:26;101487.47;;;5.89;73.50
49473;BME280;67434;50.956;6.918;2023-02-01T04:13:12;101491.00;;;5.89;73.52
49473;BME280;67434;50.956;6.918;2023-02-01T04:15:58;101492.06;;;5.95;73.08
49473;BME280;67434;50.956;6.918;2023-02-01T04:18:43;101492.25;;;5.93;73.47
49473;BME280;67434;50.956;6.918;2023-02-01T04:21:29;101491.84;;;5.97;72.84
49473;BME280;67434;50.956;6.918;2023-02-01T04:24:15;101487.69;;;5.94;73.13
49473;BME280;67434;50.956;6.918;2023-02-01T04:27:00;101489.31;;;5.88;73.51
49473;BME280;67434;50.956;6.918;2023-02-01T04:29:48;101487.28;;;5.90;73.08
49473;BME280;67434;50.956;6.918;2023-02-01T04:32:36;101482.34;;;5.94;72.97
49473;BME280;67434;50.956;6.918;2023-02-01T04:35:21;101487.28;;;5.90;73.31
49473;BME280;67434;50.956;6.918;2023-02-01T04:38:07;101473.44;;;5.87;73.46
49473;BME280;67434;50.956;6.918;2023-02-01T04:40:52;101473.44;;;5.80;73.15
49473;BME280;67434;50.956;6.918;2023-02-01T04:43:38;101470.78;;;5.74;73.42
49473;BME280;67434;50.956;6.918;2023-02-01T04:46:24;101469.53;;;5.70;73.08
49473;BME280;67434;50.956;6.918;2023-02-01T04:49:09;101468.09;;;5.60;73.57
49473;BME280;67434;50.956;6.918;2023-02-01T04:51:55;101463.94;;;5.51;74.09
49473;BME280;67434;50.956;6.918;2023-02-01T04:54:41;101439.81;;;5.45;74.44
49473;BME280;67434;50.956;6.918;2023-02-01T04:57:26;101436.94;;;5.40;74.02
49473;BME280;67434;50.956;6.918;2023-02-01T05:00:12;101448.88;;;5.37;74.20
49473;BME280;67434;50.956;6.918;2023-02-01T05:02:58;101442.28;;;5.33;74.43
49473;BME280;67434;50.956;6.918;2023-02-01T05:05:44;101443.53;;;5.24;74.67
49473;BME280;67434;50.956;6.918;2023-02-01T05:08:29;101441.88;;;5.23;74.77
49473;BME280;67434;50.956;6.918;2023-02-01T05:11:15;101448.47;;;5.20;74.91
49473;BME280;67434;50.956;6.918;2023-02-01T05:14:20;101459.81;;;5.22;74.89
49473;BME280;67434;50.956;6.918;2023-02-01T05:17:06;101449.88;;;5.16;75.07
49473;BME280;67434;50.956;6.918;2023-02-01T05:19:51;101462.03;;;5.12;75.08
49473;BME280;67434;50.956;6.918;2023-02-01T05:22:37;101477.69;;;5.09;75.25
49473;BME280;67434;50.956;6.918;2023-02-01T05:25:22;101471.28;;;5.03;75.25
49473;BME280;67434;50.956;6.918;2023-02-01T05:28:08;101472.31;;;5.02;75.21
49473;BME280;67434;50.956;6.918;2023-02-01T05:30:54;101466.56;;;4.98;75.16
49473;BME280;67434;50.956;6.918;2023-02-01T05:33:42;101465.72;;;5.05;74.30
49473;BME280;67434;50.956;6.918;2023-02-01T05:36:28;101471.09;;;5.05;74.62
49473;BME280;67434;50.956;6.918;2023-02-01T05:39:13;101470.47;;;5.02;74.26
49473;BME280;67434;50.956;6.918;2023-02-01T05:41:59;101474.38;;;4.93;75.00
49473;BME280;67434;50.956;6.918;2023-02-01T05:44:45;101474.16;;;4.95;74.73
49473;BME280;67434;50.956;6.918;2023-02-01T05:47:31;101480.34;;;4.95;74.25
49473;BME280;67434;50.956;6.918;2023-02-01T05:50:17;101488.78;;;4.86;75.14
49473;BME280;67434;50.956;6.918;2023-02-01T05:53:25;101469.56;;;4.82;74.72
49473;BME280;67434;50.956;6.918;2023-02-01T05:56:31;101470.59;;;4.81;74.81
49473;BME280;67434;50.956;6.918;2023-02-01T05:59:17;101469.56;;;4.82;75.18
49473;BME280;67434;50.956;6.918;2023-02-01T06:02:03;101471.63;;;4.80;74.86
49473;BME280;67434;50.956;6.918;2023-02-01T06:04:48;101471.47;;;4.88;73.94
49473;BME280;67434;50.956;6.918;2023-02-01T06:07:34;101476.81;;;4.88;74.24
49473;BME280;67434;50.956;6.918;2023-02-01T06:10:19;101468.16;;;4.86;74.16
49473;BME280;67434;50.956;6.918;2023-02-01T06:13:05;101475.59;;;4.84;74.61
49473;BME280;67434;50.956;6.918;2023-02-01T06:15:51;101467.75;;;4.89;74.12
49473;BME280;67434;50.956;6.918;2023-02-01T06:18:36;101477.03;;;4.93;73.99
49473;BME280;67434;50.956;6.918;2023-02-01T06:21:23;101474.78;;;4.90;74.09
49473;BME280;67434;50.956;6.918;2023-02-01T06:24:09;101472.09;;;4.90;74.06
49473;BME280;67434;50.956;6.918;2023-02-01T06:26:55;101486.31;;;4.91;73.78
49473;BME280;67434;50.956;6.918;2023-02-01T06:29:40;101499.50;;;4.92;74.01
49473;BME280;67434;50.956;6.918;2023-02-01T06:32:26;101496.03;;;4.98;73.66
49473;BME280;67434;50.956;6.918;2023-02-01T06:35:12;101500.34;;;4.99;73.64
49473;BME280;67434;50.956;6.918;2023-02-01T06:38:01;101499.94;;;5.02;73.71
49473;BME280;67434;50.956;6.918;2023-02-01T06:40:51;101490.88;;;5.03;73.63
49473;BME280;67434;50.956;6.918;2023-02-01T06:43:37;101489.66;;;5.06;73.50
49473;BME280;67434;50.956;6.918;2023-02-01T06:46:22;101507.78;;;5.11;73.40
49473;BME280;67434;50.956;6.918;2023-02-01T06:49:08;101509.66;;;5.17;74.02
49473;BME280;67434;50.956;6.918;2023-02-01T06:51:54;101505.97;;;5.18;73.39
49473;BME280;67434;50.956;6.918;2023-02-01T06:54:39;101511.94;;;5.20;73.54
49473;BME280;67434;50.956;6.918;2023-02-01T06:57:25;101514.03;;;5.24;73.36
49473;BME280;67434;50.956;6.918;2023-02-01T07:00:13;101509.09;;;5.28;72.95
49473;BME280;67434;50.956;6.918;2023-02-01T07:02:59;101501.25;;;5.26;73.37
49473;BME280;67434;50.956;6.918;2023-02-01T07:05:45;101515.69;;;5.32;73.03
49473;BME280;67434;50.956;6.918;2023-02-01T07:08:31;101507.66;;;5.32;73.05
49473;BME280;67434;50.956;6.918;2023-02-01T07:11:18;101511.16;;;5.32;73.25
49473;BME280;67434;50.956;6.918;2023-02-01T07:14:04;101516.31;;;5.34;73.23
49473;BME280;67434;50.956;6.918;2023-02-01T07:16:49;101514.25;;;5.36;73.01
49473;BME280;67434;50.956;6.918;2023-02-01T07:19:36;101531.78;;;5.39;73.57
49473;BME280;67434;50.956;6.918;2023-02-01T07:22:21;101525.19;;;5.41;73.61
49473;BME280;67434;50.956;6.918;2023-02-01T07:25:07;101526.84;;;5.42;73.11
49473;BME280;67434;50.956;6.918;2023-02-01T07:27:53;101537.78;;;5.47;73.48
49473;BME280;67434;50.956;6.918;2023-02-01T07:30:39;101541.72;;;5.51;73.05
49473;BME280;67434;50.956;6.918;2023-02-01T07:33:24;101540.69;;;5.52;72.96
49473;BME280;67434;50.956;6.918;2023-02-01T07:36:14;101539.03;;;5.45;73.58
49473;BME280;67434;50.956;6.918;2023-02-01T07:39:00;101548.72;;;5.39;73.32
49473;BME280;67434;50.956;6.918;2023-02-01T07:41:46;101552.44;;;5.45;73.61
49473;BME280;67434;50.956;6.918;2023-02-01T07:44:31;101558.22;;;5.48;73.17
49473;BME280;67434;50.956;6.918;2023-02-01T07:47:17;101559.44;;;5.52;73.37
49473;BME280;67434;50.956;6.918;2023-02-01T07:50:02;101552.03;;;5.54;72.96
49473;BME280;67434;50.956;6.918;2023-02-01T07:52:48;101536.53;;;5.43;73.08
49473;BME280;67434;50.956;6.918;2023-02-01T07:55:34;101543.56;;;5.44;73.17
49473;BME280;67434;50.956;6.918;2023-02-01T07:58:23;101537.59;;;5.49;73.21
49473;BME280;67434;50.956;6.918;2023-02-01T08:01:17;101539.66;;;5.53;72.83
49473;BME280;67434;50.956;6.918;2023-02-01T08:04:06;101558.63;;;5.52;72.99
49473;BME280;67434;50.956;6.918;2023-02-01T08:06:51;101561.94;;;5.54;72.82
49473;BME280;67434;50.956;6.918;2023-02-01T08:09:37;101558.22;;;5.48;72.58
49473;BME280;67434;50.956;6.918;2023-02-01T08:12:23;101549.34;;;5.41;72.94
49473;BME280;67434;50.956;6.918;2023-02-01T08:14:48;101575.09;;;5.36;73.01
49473;BME280;67434;50.956;6.918;2023-02-01T08:17:13;101557.56;;;5.33;73.19
49473;BME280;67434;50.956;6.918;2023-02-01T08:19:39;101554.69;;;5.34;73.20
49473;BME280;67434;50.956;6.918;2023-02-01T08:22:04;101546.44;;;5.36;73.67
49473;BME280;67434;50.956;6.918;2023-02-01T08:24:33;101550.75;;;5.37;73.32
49473;BME280;67434;50.956;6.918;2023-02-01T08:26:59;101548.50;;;5.41;72.83
49473;BME280;67434;50.956;6.918;2023-02-01T08:29:25;101549.75;;;5.45;72.92
49473;BME280;67434;50.956;6.918;2023-02-01T08:31:50;101545.00;;;5.53;72.84
49473;BME280;67434;50.956;6.918;2023-02-01T08:34:36;101549.78;;;5.58;72.43
49473;BME280;67434;50.956;6.918;2023-02-01T08:37:21;101555.31;;;5.50;72.51
49473;BME280;67434;50.956;6.918;2023-02-01T08:40:08;101548.53;;;5.54;72.91
49473;BME280;67434;50.956;6.918;2023-02-01T08:42:54;101561.09;;;5.53;72.49
49473;BME280;67434;50.956;6.918;2023-02-01T08:45:39;101571.06;;;5.66;72.26
49473;BME280;67434;50.956;6.918;2023-02-01T08:48:25;101574.16;;;5.63;72.56
49473;BME280;67434;50.956;6.918;2023-02-01T08:51:13;101583.00;;;5.63;72.20
49473;BME280;67434;50.956;6.918;2023-02-01T08:53:58;101580.97;;;5.65;71.94
49473;BME280;67434;50.956;6.918;2023-02-01T08:56:44;101576.63;;;5.78;71.37
49473;BME280;67434;50.956;6.918;2023-02-01T08:59:30;101586.56;;;5.90;70.70
49473;BME280;67434;50.956;6.918;2023-02-01T09:02:18;101587.22;;;5.99;70.61
49473;BME280;67434;50.956;6.918;2023-02-01T09:05:04;101575.66;;;5.99;70.70
49473;BME280;67434;50.956;6.918;2023-02-01T09:07:50;101586.81;;;6.15;69.88
49473;BME280;67434;50.956;6.918;2023-02-01T09:10:36;101580.81;;;6.20;69.99
49473;BME280;67434;50.956;6.918;2023-02-01T09:13:21;101563.06;;;6.32;69.61
49473;BME280;67434;50.956;6.918;2023-02-01T09:16:07;101567.38;;;6.46;68.82
49473;BME280;67434;50.956;6.918;2023-02-01T09:18:53;101568.38;;;6.52;68.43
49473;BME280;67434;50.956;6.918;2023-02-01T09:21:39;101557.41;;;6.60;68.47
49473;BME280;67434;50.956;6.918;2023-02-01T09:24:24;101556.78;;;6.58;68.43
49473;BME280;67434;50.956;6.918;2023-02-01T09:27:10;101563.44;;;6.42;68.92
49473;BME280;67434;50.956;6.918;2023-02-01T09:29:56;101570.88;;;6.47;68.70
49473;BME280;67434;50.956;6.918;2023-02-01T09:32:41;101559.94;;;6.42;68.66
49473;BME280;67434;50.956;6.918;2023-02-01T09:35:27;101563.88;;;6.39;69.09
49473;BME280;67434;50.956;6.918;2023-02-01T09:38:13;101553.75;;;6.41;68.75
49473;BME280;67434;50.956;6.918;2023-02-01T09:40:59;101566.53;;;6.52;68.56
49473;BME280;67434;50.956;6.918;2023-02-01T09:43:52;101567.16;;;6.48;68.54
49473;BME280;67434;50.956;6.918;2023-02-01T09:46:42;101569.19;;;6.59;68.33
49473;BME280;67434;50.956;6.918;2023-02-01T09:49:33;101555.13;;;6.77;68.05
49473;BME280;67434;50.956;6.918;2023-02-01T09:52:34;101551.09;;;6.99;67.40
49473;BME280;67434;50.956;6.918;2023-02-01T09:55:32;101562.16;;;7.22;66.21
49473;BME280;67434;50.956;6.918;2023-02-01T09:58:42;101563.41;;;7.20;66.55
49473;BME280;67434;50.956;6.918;2023-02-01T10:01:31;101555.25;;;6.95;66.68
49473;BME280;67434;50.956;6.918;2023-02-01T10:04:17;101561.03;;;6.92;67.22
49473;BME280;67434;50.956;6.918;2023-02-01T10:10:27;101548.94;;;6.70;67.89
49473;BME280;67434;50.956;6.918;2023-02-01T10:13:24;101549.75;;;6.70;68.09
49473;BME280;67434;50.956;6.918;2023-02-01T10:19:27;101574.31;;;6.80;67.94
49473;BME280;67434;50.956;6.918;2023-02-01T10:25:56;101528.44;;;6.75;67.96
49473;BME280;67434;50.956;6.918;2023-02-01T10:28:48;101530.25;;;6.88;67.45
49473;BME280;67434;50.956;6.918;2023-02-01T10:31:36;101528.78;;;6.92;67.25
49473;BME280;67434;50.956;6.918;2023-02-01T10:34:27;101566.44;;;6.85;67.11
49473;BME280;67434;50.956;6.918;2023-02-01T10:37:24;101533.38;;;6.85;67.21
49473;BME280;67434;50.956;6.918;2023-02-01T10:40:21;101525.44;;;7.03;66.92
49473;BME280;67434;50.956;6.918;2023-02-01T10:43:09;101537.38;;;7.14;65.94
49473;BME280;67434;50.956;6.918;2023-02-01T10:45:55;101507.59;;;7.15;65.70
49473;BME280;67434;50.956;6.918;2023-02-01T10:48:41;101528.13;;;7.41;65.58
49473;BME280;67434;50.956;6.918;2023-02-01T10:51:45;101523.88;;;7.59;64.09
49473;BME280;67434;50.956;6.918;2023-02-01T10:54:35;101526.00;;;7.81;63.54
49473;BME280;67434;50.956;6.918;2023-02-01T10:57:25;101514.81;;;7.78;63.10
49473;BME280;67434;50.956;6.918;2023-02-01T11:00:21;101512.94;;;7.85;62.60
49473;BME280;67434;50.956;6.918;2023-02-01T11:08:57;101515.13;;;7.95;62.62
49473;BME280;67434;50.956;6.918;2023-02-01T11:14:38;101522.88;;;7.84;63.39
49473;BME280;67434;50.956;6.918;2023-02-01T11:17:28;101527.69;;;7.76;63.56
49473;BME280;67434;50.956;6.918;2023-02-01T11:20:40;101517.50;;;7.53;63.52
49473;BME280;67434;50.956;6.918;2023-02-01T11:23:29;101519.94;;;7.61;64.01
49473;BME280;67434;50.956;6.918;2023-02-01T11:26:23;101512.19;;;7.71;63.45
49473;BME280;67434;50.956;6.918;2023-02-01T11:29:15;101505.50;;;7.80;63.31
49473;BME280;67434;50.956;6.918;2023-02-01T11:32:03;101501.81;;;7.75;63.65
49473;BME280;67434;50.956;6.918;2023-02-01T11:34:59;101500.31;;;7.79;63.20
49473;BME280;67434;50.956;6.918;2023-02-01T11:37:58;101491.38;;;7.85;63.00
49473;BME280;67434;50.956;6.918;2023-02-01T11:40:44;101503.97;;;7.91;62.98
49473;BME280;67434;50.956;6.918;2023-02-01T11:43:33;101515.41;;;8.30;61.98
49473;BME280;67434;50.956;6.918;2023-02-01T11:46:19;101509.81;;;8.06;62.18
49473;BME280;67434;50.956;6.918;2023-02-01T11:49:25;101502.41;;;8.02;62.82
49473;BME280;67434;50.956;6.918;2023-02-01T12:01:30;101476.25;;;8.09;61.80
49473;BME280;67434;50.956;6.918;2023-02-01T12:07:54;101466.88;;;7.68;63.10
49473;BME280;67434;50.956;6.918;2023-02-01T12:26:06;101452.78;;;7.48;64.29
49473;BME280;67434;50.956;6.918;2023-02-01T12:29:18;101463.44;;;7.61;63.83
49473;BME280;67434;50.956;6.918;2023-02-01T12:38:52;101462.81;;;7.84;62.70
49473;BME280;67434;50.956;6.918;2023-02-01T12:44:53;101456.41;;;8.03;62.39
49473;BME280;67434;50.956;6.918;2023-02-01T12:47:45;101458.06;;;8.04;62.16
49473;BME280;67434;50.956;6.918;2023-02-01T12:50:42;101443.47;;;7.94;62.38
49473;BME280;67434;50.956;6.918;2023-02-01T12:54:04;101448.13;;;7.80;63.04
49473;BME280;67434;50.956;6.918;2023-02-01T12:56:59;101438.25;;;7.74;63.26
49473;BME280;67434;50.956;6.918;2023-02-01T13:05:55;101411.97;;;7.51;63.94
49473;BME280;67434;50.956;6.918;2023-02-01T13:08:48;101406.22;;;7.47;64.39
49473;BME280;67434;50.956;6.918;2023-02-01T13:11:40;101397.56;;;7.45;64.08
49473;BME280;67434;50.956;6.918;2023-02-01T13:14:38;101409.94;;;7.46;64.20
49473;BME280;67434;50.956;6.918;2023-02-01T13:17:28;101395.91;;;7.44;64.35
49473;BME280;67434;50.956;6.918;2023-02-01T13:20:34;101397.13;;;7.42;64.42
49473;BME280;67434;50.956;6.918;2023-02-01T13:23:30;101396.31;;;7.41;64.63
49473;BME280;67434;50.956;6.918;2023-02-01T13:26:16;101393.41;;;7.43;64.51
49473;BME280;67434;50.956;6.918;2023-02-01T13:29:03;101395.69;;;7.46;64.52
49473;BME280;67434;50.956;6.918;2023-02-01T13:41:42;101385.78;;;7.40;65.88
49473;BME280;67434;50.956;6.918;2023-02-01T13:44:39;101388.69;;;7.38;66.12
49473;BME280;67434;50.956;6.918;2023-02-01T13:47:28;101387.19;;;7.42;66.39
49473;BME280;67434;50.956;6.918;2023-02-01T13:50:26;101379.75;;;7.44;66.37
49473;BME280;67434;50.956;6.918;2023-02-01T13:56:02;101382.03;;;7.41;66.32
49473;BME280;67434;50.956;6.918;2023-02-01T13:58:48;101385.16;;;7.44;65.93
49473;BME280;67434;50.956;6.918;2023-02-01T14:01:34;101377.25;;;7.43;66.36
49473;BME280;67434;50.956;6.918;2023-02-01T14:04:46;101381.41;;;7.45;66.04
49473;BME280;67434;50.956;6.918;2023-02-01T14:07:33;101368.81;;;7.39;66.13
49473;BME280;67434;50.956;6.918;2023-02-01T14:13:37;101380.38;;;7.46;65.42
49473;BME280;67434;50.956;6.918;2023-02-01T14:16:23;101376.84;;;7.46;65.65
49473;BME280;67434;50.956;6.918;2023-02-01T14:19:26;101392.31;;;7.50;64.87
49473;BME280;67434;50.956;6.918;2023-02-01T14:25:16;101377.31;;;7.61;64.62
49473;BME280;67434;50.956;6.918;2023-02-01T14:28:10;101387.19;;;7.67;64.42
49473;BME280;67434;50.956;6.918;2023-02-01T14:30:57;101385.63;;;7.60;64.46
49473;BME280;67434;50.956;6.918;2023-02-01T14:33:45;101392.88;;;7.59;64.34
49473;BME280;67434;50.956;6.918;2023-02-01T14:37:07;101408.78;;;7.61;64.10
49473;BME280;67434;50.956;6.918;2023-02-01T14:40:04;101397.34;;;7.65;63.95
49473;BME280;67434;50.956;6.918;2023-02-01T14:42:51;101407.91;;;7.67;63.97
49473;BME280;67434;50.956;6.918;2023-02-01T14:51:11;101406.63;;;7.69;63.17
49473;BME280;67434;50.956;6.918;2023-02-01T14:53:59;101404.75;;;7.70;63.21
49473;BME280;67434;50.956;6.918;2023-02-01T14:56:45;101412.41;;;7.73;63.36
49473;BME280;67434;50.956;6.918;2023-02-01T14:59:31;101415.69;;;7.75;63.12
49473;BME280;67434;50.956;6.918;2023-02-01T15:02:23;101419.19;;;7.75;63.18
49473;BME280;67434;50.956;6.918;2023-02-01T15:05:32;101413.59;;;7.77;62.78
49473;BME280;67434;50.956;6.918;2023-02-01T15:08:26;101404.25;;;7.79;63.03
49473;BME280;67434;50.956;6.918;2023-02-01T15:11:15;101403.06;;;7.75;62.87
49473;BME280;67434;50.956;6.918;2023-02-01T15:14:01;101413.00;;;7.75;62.71
49473;BME280;67434;50.956;6.918;2023-02-01T15:16:47;101419.88;;;7.71;62.80
49473;BME280;67434;50.956;6.918;2023-02-01T15:19:38;101413.44;;;7.72;62.89
49473;BME280;67434;50.956;6.918;2023-02-01T15:22:24;101409.69;;;7.73;62.78
49473;BME280;67434;50.956;6.918;2023-02-01T15:25:28;101418.38;;;7.75;63.02
49473;BME280;67434;50.956;6.918;2023-02-01T15:28:15;101436.41;;;7.74;62.38
49473;BME280;67434;50.956;6.918;2023-02-01T15:31:04;101434.31;;;7.76;62.35
49473;BME280;67434;50.956;6.918;2023-02-01T15:33:57;101437.59;;;7.78;62.41
49473;BME280;67434;50.956;6.918;2023-02-01T15:36:44;101428.91;;;7.76;62.61
49473;BME280;67434;50.956;6.918;2023-02-01T15:39:30;101442.16;;;7.78;62.40
49473;BME280;67434;50.956;6.918;2023-02-01T15:42:16;101434.53;;;7.75;62.72
49473;BME280;67434;50.956;6.918;2023-02-01T15:45:15;101436.16;;;7.76;63.05
49473;BME280;67434;50.956;6.918;2023-02-01T15:48:02;101427.28;;;7.75;63.25
49473;BME280;67434;50.956;6.918;2023-02-01T15:50:49;101438.84;;;7.76;63.29
49473;BME280;67434;50.956;6.918;2023-02-01T15:53:35;101425.84;;;7.73;63.42
49473;BME280;67434;50.956;6.918;2023-02-01T15:56:23;101423.53;;;7.76;63.41
49473;BME280;67434;50.956;6.918;2023-02-01T15:59:16;101427.28;;;7.75;63.16
49473;BME280;67434;50.956;6.918;2023-02-01T16:02:02;101431.84;;;7.75;63.10
49473;BME280;67434;50.956;6.918;2023-02-01T16:04:48;101431.84;;;7.75;63.40
49473;BME280;67434;50.956;6.918;2023-02-01T16:07:36;101437.00;;;7.76;63.39
49473;BME280;67434;50.956;6.918;2023-02-01T16:10:26;101438.03;;;7.75;63.61
49473;BME280;67434;50.956;6.918;2023-02-01T16:13:13;101433.25;;;7.77;63.44
49473;BME280;67434;50.956;6.918;2023-02-01T16:15:59;101447.97;;;7.75;64.15
49473;BME280;67434;50.956;6.918;2023-02-01T16:18:45;101447.00;;;7.69;65.25
49473;BME280;67434;50.956;6.918;2023-02-01T16:21:31;101459.09;;;7.60;66.29
49473;BME280;67434;50.956;6.918;2023-02-01T16:24:16;101459.75;;;7.56;67.16
49473;BME280;67434;50.956;6.918;2023-02-01T16:27:02;101458.97;;;7.48;68.56
49473;BME280;67434;50.956;6.918;2023-02-01T16:29:48;101467.91;;;7.42;69.23
49473;BME280;67434;50.956;6.918;2023-02-01T16:32:35;101463.00;;;7.33;69.93
49473;BME280;67434;50.956;6.918;2023-02-01T16:35:27;101461.78;;;7.29;70.72
49473;BME280;67434;50.956;6.918;2023-02-01T16:38:16;101469.53;;;7.18;71.60